Time;durP1;ratioP1;P1;durP2;ratioP2;P2;SDS_P1;SDS_P2;PMS_P1;PMS_P2;Temp;Humidity;BMP_temperature;BMP_pressure;BME280_temperature;BME280_humidity;BME280_pressure;Samples;Min_cycle;Max_cycle;Signal;HPM_P1;HPM_P2
2023/07/10 00:04:30;;;;;;;16.17;13.20;;;16.10;99.90;;;;;;25684145;23;20063;-47
2023/07/10 00:14:34;;;;;;;19.85;14.75;;;16.00;99.90;;;;;;25710708;23;20004;-53
2023/07/10 00:24:35;;;;;;;22.50;16.23;;;16.00;99.90;;;;;;25709816;23;20008;-47
2023/07/10 00:34:37;;;;;;;18.58;12.85;;;16.00;99.90;;;;;;25710400;23;20009;-48
2023/07/10 00:44:47;;;;;;;20.55;12.70;;;16.00;99.90;;;;;;25709554;23;20020;-46
2023/07/10 00:54:51;;;;;;;18.05;10.93;;;15.90;99.90;;;;;;25750671;23;20005;-47
2023/07/10 01:04:59;;;;;;;15.07;11.05;;;15.70;99.90;;;;;;25709794;23;20013;-47
2023/07/10 01:15:01;;;;;;;14.02;10.63;;;15.70;99.90;;;;;;25728575;23;20027;-46
2023/07/10 01:25:03;;;;;;;20.42;13.35;;;15.70;99.90;;;;;;25689825;23;20013;-49
2023/07/10 01:35:06;;;;;;;14.18;10.38;;;15.70;99.90;;;;;;25716339;23;20058;-53
2023/07/10 01:45:13;;;;;;;17.67;13.40;;;15.80;99.90;;;;;;25715394;23;20288;-46
2023/07/10 01:55:18;;;;;;;20.40;13.85;;;15.60;99.90;;;;;;25756865;23;20333;-47
2023/07/10 02:05:20;;;;;;;19.75;15.00;;;15.50;99.90;;;;;;25715150;23;20383;-47
2023/07/10 02:15:22;;;;;;;14.90;11.70;;;15.40;99.90;;;;;;25688075;23;20005;-51
2023/07/10 02:25:23;;;;;;;12.55;10.25;;;15.40;99.90;;;;;;25713917;23;20015;-53
2023/07/10 02:35:25;;;;;;;12.35;8.30;;;15.50;99.90;;;;;;25713724;23;20008;-45
2023/07/10 02:45:27;;;;;;;18.70;13.43;;;15.30;99.90;;;;;;25686382;23;20009;-53
2023/07/10 02:55:28;;;;;;;17.40;11.98;;;15.10;99.90;;;;;;25713020;23;20324;-47
2023/07/10 03:05:30;;;;;;;9.95;8.60;;;15.10;99.90;;;;;;25686674;23;20340;-45
2023/07/10 03:15:32;;;;;;;10.40;8.23;;;15.20;99.90;;;;;;25712284;23;20423;-45
2023/07/10 03:25:34;;;;;;;16.10;8.50;;;15.20;99.90;;;;;;25711922;23;20520;-45
2023/07/10 03:35:35;;;;;;;13.05;8.32;;;15.20;99.90;;;;;;25711507;23;20016;-44
2023/07/10 03:45:37;;;;;;;11.90;8.20;;;15.00;99.90;;;;;;25711041;23;20550;-47
2023/07/10 03:55:50;;;;;;;14.25;10.25;;;15.00;99.90;;;;;;25710551;23;20009;-52
2023/07/10 04:05:54;;;;;;;18.02;12.70;;;15.10;99.90;;;;;;25752568;23;20495;-45
2023/07/10 04:16:03;;;;;;;16.02;10.70;;;15.20;99.90;;;;;;25710655;23;20051;-45
2023/07/10 04:26:06;;;;;;;13.35;11.00;;;15.40;99.90;;;;;;25751849;23;20027;-46
2023/07/10 04:36:08;;;;;;;15.05;10.00;;;15.60;99.90;;;;;;25710806;23;20017;-45
2023/07/10 04:46:12;;;;;;;11.93;8.13;;;15.90;99.90;;;;;;25711944;23;20013;-47
2023/07/10 04:56:16;;;;;;;10.88;7.20;;;16.10;99.90;;;;;;25717556;23;20007;-48
2023/07/10 05:06:18;;;;;;;10.07;7.60;;;16.00;99.90;;;;;;25719084;23;20388;-47
2023/07/10 05:16:21;;;;;;;11.23;8.43;;;16.10;99.90;;;;;;25718389;23;20228;-49
2023/07/10 05:26:22;;;;;;;9.10;6.95;;;16.10;99.90;;;;;;25716573;23;20009;-47
2023/07/10 05:36:24;;;;;;;11.20;6.70;;;16.40;99.90;;;;;;25716546;23;20019;-47
2023/07/10 05:46:25;;;;;;;9.90;5.40;;;16.50;99.90;;;;;;25715790;23;20004;-44
2023/07/10 05:56:27;;;;;;;8.32;5.35;;;16.60;99.90;;;;;;25714983;23;20041;-44
2023/07/10 06:06:32;;;;;;;7.20;5.20;;;16.90;99.90;;;;;;25714361;23;20404;-53
2023/07/10 06:16:33;;;;;;;8.93;5.68;;;17.30;99.90;;;;;;25714703;23;20062;-46
2023/07/10 06:26:35;;;;;;;7.57;5.20;;;19.50;99.90;;;;;;25714430;23;20000;-52
2023/07/10 06:36:36;;;;;;;5.97;4.28;;;23.60;99.90;;;;;;25714973;23;20086;-48
2023/07/10 06:46:38;;;;;;;7.03;5.97;;;26.50;99.90;;;;;;25713591;23;20645;-55
2023/07/10 06:56:40;;;;;;;7.30;6.60;;;28.10;99.90;;;;;;25686815;23;20313;-57
2023/07/10 07:06:41;;;;;;;9.30;7.00;;;29.00;97.70;;;;;;25712950;23;20059;-54
2023/07/10 07:16:43;;;;;;;8.63;7.00;;;29.00;96.10;;;;;;25712744;23;20328;-56
2023/07/10 07:26:44;;;;;;;8.25;6.63;;;29.40;97.90;;;;;;25712184;23;20019;-52
2023/07/10 07:36:49;;;;;;;8.98;8.07;;;30.70;96.50;;;;;;25711009;23;20004;-48
2023/07/10 07:46:51;;;;;;;7.95;7.20;;;31.10;95.60;;;;;;25710981;23;20004;-58
2023/07/10 07:56:53;;;;;;;7.77;7.07;;;30.90;96.80;;;;;;25710469;23;20021;-57
2023/07/10 08:06:57;;;;;;;8.75;7.90;;;30.70;95.60;;;;;;25711094;23;20001;-55
2023/07/10 08:16:58;;;;;;;8.98;8.07;;;30.60;96.20;;;;;;25710633;23;20047;-57
2023/07/10 08:27:00;;;;;;;9.68;8.77;;;30.50;96.30;;;;;;25717560;23;20000;-50
2023/07/10 08:37:02;;;;;;;10.10;8.77;;;30.60;95.80;;;;;;25718728;23;20011;-51
2023/07/10 08:47:19;;;;;;;10.55;8.50;;;30.70;96.90;;;;;;25717511;23;20016;-51
2023/07/10 08:57:23;;;;;;;8.25;7.47;;;30.70;97.60;;;;;;25758566;23;20502;-49
2023/07/10 09:07:26;;;;;;;9.77;8.90;;;30.70;97.40;;;;;;25716538;23;20432;-49
2023/07/10 09:17:51;;;;;;;10.50;9.50;;;30.70;97.80;;;;;;25717095;23;20004;-51
2023/07/10 09:27:55;;;;;;;10.85;9.32;;;30.70;96.70;;;;;;25705360;23;20062;-50
2023/07/10 09:37:57;;;;;;;9.80;8.80;;;30.60;97.40;;;;;;25715812;23;20344;-56
2023/07/10 09:47:59;;;;;;;11.68;9.38;;;30.30;96.50;;;;;;25715670;23;20471;-50
2023/07/10 09:58:03;;;;;;;10.85;8.82;;;30.30;97.70;;;;;;25715330;23;20444;-57
2023/07/10 10:08:18;;;;;;;11.93;8.83;;;30.50;98.30;;;;;;25714177;23;20012;-57
2023/07/10 10:18:35;;;;;;;10.63;9.57;;;30.70;97.90;;;;;;25755830;23;20001;-57
2023/07/10 10:28:55;;;;;;;11.15;10.02;;;30.50;97.90;;;;;;25755768;23;20004;-51
2023/07/10 10:39:34;;;;;;;11.75;10.52;;;30.30;98.80;;;;;;25755189;23;20004;-51
2023/07/10 10:50:04;;;;;;;15.25;12.25;;;30.50;99.00;;;;;;25710445;23;20016;-51
2023/07/10 11:00:27;;;;;;;11.38;10.18;;;30.20;98.30;;;;;;25713260;23;20509;-47
2023/07/10 11:10:41;;;;;;;12.38;10.60;;;29.90;99.20;;;;;;25754270;23;20055;-56
2023/07/10 11:20:43;;;;;;;11.65;10.40;;;30.20;99.50;;;;;;25755385;23;20371;-52
2023/07/10 11:30:45;;;;;;;15.38;11.07;;;30.20;97.40;;;;;;25711991;23;20012;-55
2023/07/10 11:40:47;;;;;;;10.98;9.52;;;30.30;99.00;;;;;;25711334;23;20004;-49
2023/07/10 11:50:49;;;;;;;12.38;9.40;;;30.50;97.50;;;;;;25684750;23;20088;-56
2023/07/10 12:00:57;;;;;;;12.05;10.85;;;30.60;99.60;;;;;;25710606;23;20009;-52
2023/07/10 12:10:59;;;;;;;12.93;11.15;;;30.50;98.50;;;;;;25751460;23;20009;-56
2023/07/10 12:21:04;;;;;;;10.93;9.82;;;30.70;99.10;;;;;;25710480;23;20375;-49
2023/07/10 12:31:12;;;;;;;12.60;10.47;;;31.10;98.90;;;;;;25683611;23;20005;-57
2023/07/10 12:41:14;;;;;;;11.70;10.55;;;31.20;98.50;;;;;;25751482;23;20005;-47
2023/07/10 12:51:23;;;;;;;18.08;11.15;;;31.00;98.50;;;;;;25710211;23;20100;-49
2023/07/10 13:01:34;;;;;;;10.20;9.10;;;30.70;98.20;;;;;;25751223;23;20062;-50
2023/07/10 13:11:43;;;;;;;10.40;9.40;;;31.00;97.40;;;;;;25755661;23;20453;-52
2023/07/10 13:21:45;;;;;;;12.50;9.20;;;31.00;98.90;;;;;;25758521;23;20084;-51
2023/07/10 13:31:47;;;;;;;13.50;10.48;;;30.90;98.80;;;;;;25716324;23;20004;-46
2023/07/10 13:41:48;;;;;;;13.35;10.48;;;31.10;98.30;;;;;;25715981;23;20514;-49
2023/07/10 13:51:50;;;;;;;13.18;11.52;;;31.00;97.90;;;;;;25715503;23;20025;-58
2023/07/10 14:01:52;;;;;;;12.95;11.75;;;31.10;98.60;;;;;;25714278;23;20012;-58
2023/07/10 14:11:55;;;;;;;14.73;12.93;;;31.20;97.00;;;;;;25715029;23;20004;-48
2023/07/10 14:21:56;;;;;;;15.70;14.05;;;31.40;98.30;;;;;;25714403;23;20012;-57
2023/07/10 14:31:58;;;;;;;15.15;13.45;;;31.60;97.90;;;;;;25714415;23;20011;-47
2023/07/10 14:42:00;;;;;;;15.52;13.35;;;31.70;96.80;;;;;;25713728;23;20008;-46
2023/07/10 14:52:01;;;;;;;14.65;13.02;;;32.10;96.40;;;;;;25713566;23;20020;-47
2023/07/10 15:02:18;;;;;;;19.05;14.45;;;32.20;95.60;;;;;;25713127;23;20012;-58
2023/07/10 15:12:21;;;;;;;16.60;15.10;;;32.20;96.60;;;;;;25754265;23;20277;-57
2023/07/10 15:22:23;;;;;;;20.77;18.75;;;32.20;96.40;;;;;;25712618;23;20008;-57
2023/07/10 15:32:26;;;;;;;24.05;20.80;;;32.20;95.50;;;;;;25711232;23;20039;-57
2023/07/10 15:42:31;;;;;;;20.40;18.50;;;31.90;95.70;;;;;;25711646;23;20081;-47
2023/07/10 15:52:39;;;;;;;26.23;22.30;;;31.40;96.60;;;;;;25711043;23;20017;-53
2023/07/10 16:02:41;;;;;;;21.13;18.95;;;30.90;96.70;;;;;;25751318;23;20425;-55
2023/07/10 16:12:44;;;;;;;22.48;20.20;;;30.30;97.60;;;;;;25710942;23;20008;-48
2023/07/10 16:22:59;;;;;;;23.35;19.27;;;28.60;99.30;;;;;;25710819;23;20514;-55
2023/07/10 16:33:04;;;;;;;21.87;19.63;;;27.20;99.90;;;;;;25750901;23;20000;-46
2023/07/10 16:43:16;;;;;;;23.52;20.27;;;26.30;99.90;;;;;;25712749;23;20502;-55
2023/07/10 16:53:39;;;;;;;25.58;20.63;;;25.80;99.90;;;;;;25759474;23;20000;-54
2023/07/10 17:03:41;;;;;;;23.77;21.27;;;25.00;99.90;;;;;;25757078;23;20004;-62
2023/07/10 17:13:42;;;;;;;29.15;24.05;;;24.10;99.90;;;;;;25713618;23;20008;-46
2023/07/10 17:23:44;;;;;;;29.27;24.20;;;23.70;99.90;;;;;;25713960;23;20185;-47
2023/07/10 17:33:54;;;;;;;28.85;25.13;;;23.30;99.90;;;;;;25706911;23;20019;-49
2023/07/10 17:44:12;;;;;;;29.27;24.88;;;23.00;99.90;;;;;;25748166;23;20522;-47
2023/07/10 17:54:26;;;;;;;28.37;23.20;;;22.70;99.90;;;;;;25757083;23;20005;-45
2023/07/10 18:04:28;;;;;;;26.80;23.75;;;22.70;99.90;;;;;;25688205;23;20071;-50
2023/07/10 18:14:30;;;;;;;28.63;25.45;;;22.60;99.90;;;;;;25714981;23;20015;-46
2023/07/10 18:24:31;;;;;;;28.45;25.35;;;22.20;99.90;;;;;;25714519;23;20051;-45
2023/07/10 18:34:33;;;;;;;31.15;26.55;;;21.60;99.90;;;;;;25714206;23;20031;-46
2023/07/10 18:44:36;;;;;;;33.45;26.77;;;20.90;99.90;;;;;;25712223;23;20024;-46
2023/07/10 18:54:38;;;;;;;27.33;23.58;;;20.30;99.90;;;;;;25712950;23;20376;-55
2023/07/10 19:04:40;;;;;;;20.90;18.38;;;19.70;99.90;;;;;;25713160;23;20000;-56
2023/07/10 19:14:43;;;;;;;25.20;22.35;;;19.30;99.90;;;;;;25711025;23;20433;-56
2023/07/10 19:24:45;;;;;;;30.50;27.20;;;19.00;99.90;;;;;;25713382;23;20368;-57
2023/07/10 19:34:48;;;;;;;29.70;25.52;;;19.00;99.90;;;;;;25711942;23;20005;-57
2023/07/10 19:44:55;;;;;;;28.17;23.58;;;18.90;99.90;;;;;;25710261;23;20012;-57
2023/07/10 19:54:57;;;;;;;16.20;12.93;;;18.90;99.90;;;;;;25751876;23;20023;-55
2023/07/10 20:04:59;;;;;;;21.25;17.10;;;18.80;99.90;;;;;;25711109;23;20440;-55
2023/07/10 20:15:01;;;;;;;21.77;18.20;;;18.60;99.90;;;;;;25711330;23;20063;-45
2023/07/10 20:25:03;;;;;;;22.10;16.80;;;18.60;99.90;;;;;;25720437;23;20063;-47
2023/07/10 20:35:06;;;;;;;23.17;17.05;;;18.80;99.90;;;;;;25718954;23;20324;-50
2023/07/10 20:45:15;;;;;;;22.30;19.95;;;18.60;99.90;;;;;;25718074;23;20012;-46
2023/07/10 20:55:18;;;;;;;24.90;18.92;;;18.40;99.90;;;;;;25717321;23;20020;-48
2023/07/10 21:05:19;;;;;;;21.83;19.27;;;18.70;99.90;;;;;;25716918;23;20005;-49
2023/07/10 21:15:21;;;;;;;19.30;15.93;;;19.60;99.90;;;;;;25717120;23;20004;-57
2023/07/10 21:25:26;;;;;;;19.70;15.98;;;19.10;99.90;;;;;;25716905;23;20078;-48
2023/07/10 21:35:29;;;;;;;21.73;16.92;;;18.50;99.90;;;;;;25716583;23;20356;-56
2023/07/10 21:45:33;;;;;;;25.30;20.65;;;18.20;99.90;;;;;;25715422;23;20009;-51
2023/07/10 21:55:35;;;;;;;24.85;16.77;;;18.40;99.90;;;;;;25689069;23;20012;-57
2023/07/10 22:05:36;;;;;;;25.15;18.88;;;18.60;99.90;;;;;;25714809;23;20005;-47
2023/07/10 22:15:39;;;;;;;20.50;16.45;;;18.80;99.90;;;;;;25715249;23;20063;-46
2023/07/10 22:25:42;;;;;;;28.85;20.63;;;19.00;99.90;;;;;;25714993;23;20012;-54
2023/07/10 22:35:44;;;;;;;30.02;23.42;;;19.70;99.90;;;;;;25714240;23;20004;-47
2023/07/10 22:45:46;;;;;;;21.25;17.63;;;19.80;99.90;;;;;;25712997;23;20020;-45
2023/07/10 22:55:48;;;;;;;22.45;17.60;;;19.90;99.90;;;;;;25686627;23;20013;-46
2023/07/10 23:05:49;;;;;;;33.85;27.58;;;19.60;99.90;;;;;;25714462;23;20009;-46
2023/07/10 23:15:51;;;;;;;35.30;28.67;;;19.40;99.90;;;;;;25712532;23;20375;-57
2023/07/10 23:25:52;;;;;;;36.03;29.17;;;19.20;99.90;;;;;;25712249;23;20078;-47
2023/07/10 23:35:54;;;;;;;37.88;31.58;;;19.00;99.90;;;;;;25712214;23;20008;-55
2023/07/10 23:45:55;;;;;;;38.40;30.38;;;18.70;99.90;;;;;;25711034;23;20075;-46
2023/07/10 23:55:57;;;;;;;39.13;33.17;;;18.60;99.90;;;;;;25710435;23;20008;-55
